createdAt,value
2019-03-12T00:01:24.677Z,3.10
2019-03-12T00:03:57.630Z,2.75
2019-03-12T00:06:28.230Z,2.55
2019-03-12T00:08:58.886Z,2.90
2019-03-12T00:11:32.174Z,3.95
2019-03-12T00:14:02.679Z,2.72
2019-03-12T00:16:33.216Z,3.02
2019-03-12T00:19:04.392Z,2.60
2019-03-12T00:21:36.308Z,2.70
2019-03-12T00:24:06.528Z,4.10
2019-03-12T00:26:38.081Z,4.00
2019-03-12T00:29:12.688Z,3.05
2019-03-12T00:31:44.441Z,3.58
2019-03-12T00:34:28.932Z,3.40
2019-03-12T00:36:59.329Z,3.67
2019-03-12T00:39:32.343Z,2.35
2019-03-12T00:42:02.322Z,3.00
2019-03-12T00:44:34.223Z,2.70
2019-03-12T00:49:45.645Z,3.50
2019-03-12T00:51:21.885Z,3.80
2019-03-12T00:52:16.184Z,3.15
2019-03-12T00:54:46.503Z,3.12
2019-03-12T01:00:10.995Z,2.35
2019-03-12T01:02:41.553Z,3.90
2019-03-12T01:05:11.905Z,3.10
2019-03-12T01:07:42.417Z,2.62
2019-03-12T01:10:14.083Z,3.35
2019-03-12T01:12:44.674Z,3.80
2019-03-12T01:15:15.152Z,3.40
2019-03-12T01:17:45.946Z,3.85
2019-03-12T01:20:16.485Z,3.90
2019-03-12T01:22:47.438Z,4.90
2019-03-12T01:25:20.676Z,4.58
2019-03-12T01:27:51.399Z,4.65
2019-03-12T01:30:22.994Z,3.45
2019-03-12T01:32:53.109Z,4.42
2019-03-12T01:35:23.561Z,4.92
2019-03-12T01:37:53.697Z,4.10
2019-03-12T01:40:23.893Z,4.20
2019-03-12T01:42:54.300Z,6.40
2019-03-12T01:45:24.586Z,4.95
2019-03-12T01:47:55.003Z,4.62
2019-03-12T01:50:25.559Z,4.80
2019-03-12T01:52:57.857Z,4.70
2019-03-12T01:55:27.992Z,4.83
2019-03-12T01:57:58.290Z,4.58
2019-03-12T02:00:42.088Z,5.50
2019-03-12T02:03:12.522Z,4.67
2019-03-12T02:05:42.858Z,5.40
2019-03-12T02:08:13.959Z,5.42
2019-03-12T02:10:44.090Z,5.60
2019-03-12T02:13:14.227Z,5.80
2019-03-12T02:15:44.467Z,6.17
2019-03-12T02:18:14.460Z,6.30
2019-03-12T02:20:44.436Z,5.87
2019-03-12T02:23:14.437Z,7.10
2019-03-12T02:25:45.872Z,6.67
2019-03-12T02:28:16.264Z,7.83
2019-03-12T02:30:46.529Z,7.53
2019-03-12T02:33:16.732Z,8.40
2019-03-12T02:35:47.191Z,8.08
2019-03-12T02:38:17.230Z,8.23
2019-03-12T02:40:47.325Z,9.13
2019-03-12T02:43:17.082Z,9.40
2019-03-12T02:45:47.626Z,8.65
2019-03-12T02:48:17.751Z,9.13
2019-03-12T02:50:48.032Z,9.65
2019-03-12T02:53:18.787Z,10.32
2019-03-12T02:55:51.886Z,9.78
2019-03-12T02:58:21.721Z,8.80
2019-03-12T03:00:53.130Z,9.40
2019-03-12T03:03:23.374Z,8.15
2019-03-12T03:06:11.505Z,8.05
2019-03-12T03:08:41.430Z,8.80
2019-03-12T03:11:11.680Z,7.92
2019-03-12T03:13:42.531Z,8.03
2019-03-12T03:16:13.122Z,8.55
2019-03-12T03:18:43.489Z,8.70
2019-03-12T03:21:19.748Z,8.33
2019-03-12T03:23:49.865Z,8.25
2019-03-12T03:26:20.157Z,8.00
2019-03-12T03:28:50.074Z,7.20
2019-03-12T03:31:20.791Z,7.85
2019-03-12T03:33:51.288Z,6.67
2019-03-12T03:36:21.403Z,6.05
2019-03-12T03:38:51.514Z,7.30
2019-03-12T03:41:21.656Z,7.12
2019-03-12T03:43:51.842Z,7.50
2019-03-12T03:46:22.155Z,7.17
2019-03-12T03:48:51.924Z,8.00
2019-03-12T03:51:22.003Z,6.78
2019-03-12T03:53:51.879Z,6.05
2019-03-12T03:56:22.231Z,5.72
2019-03-12T03:58:52.234Z,6.42
2019-03-12T04:01:22.206Z,5.60
2019-03-12T04:03:52.244Z,7.30
2019-03-12T04:06:22.260Z,6.47
2019-03-12T04:08:52.037Z,7.17
2019-03-12T04:11:22.249Z,6.47
2019-03-12T04:13:52.147Z,6.75
2019-03-12T04:16:22.363Z,6.45
2019-03-12T04:18:52.355Z,5.20
2019-03-12T04:21:22.473Z,5.10
2019-03-12T04:23:52.492Z,5.87
2019-03-12T04:26:23.087Z,6.50
2019-03-12T04:28:52.904Z,5.40
2019-03-12T04:31:22.841Z,5.05
2019-03-12T04:34:22.118Z,4.50
2019-03-12T04:36:52.607Z,3.70
2019-03-12T04:39:22.489Z,4.10
2019-03-12T04:41:52.244Z,4.37
2019-03-12T04:44:22.006Z,4.50
2019-03-12T04:46:52.176Z,3.87
2019-03-12T04:49:22.350Z,4.30
2019-03-12T04:51:52.368Z,3.60
2019-03-12T04:54:24.216Z,3.47
2019-03-12T04:56:54.295Z,4.17
2019-03-12T04:59:24.096Z,3.50
2019-03-12T05:01:53.853Z,3.52
2019-03-12T05:04:24.169Z,3.87
2019-03-12T05:06:54.166Z,4.28
2019-03-12T05:09:23.695Z,4.08
2019-03-12T05:11:53.672Z,4.42
2019-03-12T05:14:33.492Z,4.03
2019-03-12T05:17:06.648Z,3.92
2019-03-12T05:19:36.783Z,3.90
2019-03-12T05:22:07.294Z,3.70
2019-03-12T05:24:37.357Z,2.85
2019-03-12T05:27:07.599Z,4.12
2019-03-12T05:29:38.088Z,4.37
2019-03-12T05:32:08.000Z,4.65
2019-03-12T05:34:38.659Z,4.67
2019-03-12T05:37:08.883Z,4.42
2019-03-12T05:39:39.159Z,3.70
2019-03-12T05:42:09.608Z,4.72
2019-03-12T05:44:39.680Z,3.40
2019-03-12T05:47:09.849Z,4.47
2019-03-12T05:49:39.593Z,4.05
2019-03-12T05:52:10.061Z,3.12
2019-03-12T05:54:40.603Z,3.08
2019-03-12T05:57:10.711Z,3.70
2019-03-12T05:59:40.977Z,4.75
2019-03-12T06:02:11.128Z,5.28
2019-03-12T06:04:41.172Z,3.40
2019-03-12T06:07:11.394Z,4.90
2019-03-12T06:09:41.914Z,3.52
2019-03-12T06:12:11.736Z,4.20
2019-03-12T06:14:41.886Z,4.58
2019-03-12T06:17:12.379Z,4.40
2019-03-12T06:19:42.290Z,3.47
2019-03-12T06:22:12.433Z,3.55
2019-03-12T06:24:42.642Z,6.05
2019-03-12T06:27:18.237Z,4.22
2019-03-12T06:29:46.472Z,4.03
2019-03-12T06:32:34.837Z,4.95
2019-03-12T06:35:15.208Z,4.10
2019-03-12T06:38:06.635Z,4.62
2019-03-12T06:40:50.509Z,4.58
2019-03-12T06:43:27.879Z,4.05
2019-03-12T06:46:16.473Z,4.22
2019-03-12T06:49:00.062Z,4.25
2019-03-12T06:51:51.724Z,3.80
2019-03-12T06:54:39.134Z,4.10
2019-03-12T06:57:27.775Z,3.72
2019-03-12T07:00:25.742Z,4.37
2019-03-12T07:03:09.072Z,3.77
2019-03-12T07:06:00.691Z,4.12
2019-03-12T07:08:49.660Z,3.50
2019-03-12T07:11:41.376Z,3.87
2019-03-12T07:14:35.987Z,4.17
2019-03-12T07:17:13.668Z,4.25
2019-03-12T07:20:08.357Z,3.80
2019-03-12T07:22:51.307Z,3.72
2019-03-12T07:25:38.553Z,3.42
2019-03-12T07:28:21.107Z,2.62
2019-03-12T07:31:15.816Z,2.50
2019-03-12T07:33:59.739Z,3.17
2019-03-12T07:36:57.507Z,2.80
2019-03-12T07:39:51.685Z,3.62
2019-03-12T07:42:29.585Z,2.85
2019-03-12T07:45:27.456Z,3.22
2019-03-12T07:48:02.192Z,3.17
2019-03-12T07:50:41.411Z,3.17
2019-03-12T07:53:30.267Z,4.33
2019-03-12T07:56:17.998Z,2.87
2019-03-12T07:59:08.725Z,4.08
2019-03-12T08:02:04.841Z,3.30
2019-03-12T08:04:52.371Z,4.00
2019-03-12T08:07:44.727Z,3.27
2019-03-12T08:10:34.958Z,4.00
2019-03-12T08:13:09.911Z,3.42
2019-03-12T08:16:07.475Z,3.85
2019-03-12T08:19:02.375Z,2.92
2019-03-12T08:21:41.200Z,4.97
2019-03-12T08:24:25.366Z,2.98
2019-03-12T08:27:16.766Z,3.20
2019-03-12T08:30:15.136Z,2.80
2019-03-12T08:33:02.192Z,2.77
2019-03-12T08:35:39.392Z,3.17
2019-03-12T08:38:34.057Z,3.45
2019-03-12T08:41:29.026Z,2.98
2019-03-12T08:44:26.224Z,3.65
2019-03-12T08:47:02.913Z,3.50
2019-03-12T08:50:00.717Z,3.83
2019-03-12T08:52:55.532Z,4.03
2019-03-12T08:55:50.309Z,2.77
2019-03-12T08:58:36.198Z,3.33
2019-03-12T09:01:24.030Z,3.75
2019-03-12T09:04:15.401Z,2.60
2019-03-12T09:06:53.859Z,2.58
2019-03-12T09:09:45.658Z,2.42
2019-03-12T09:12:24.691Z,4.25
2019-03-12T09:15:16.338Z,3.60
2019-03-12T09:18:04.069Z,2.50
2019-03-12T09:20:52.613Z,2.90
2019-03-12T09:23:32.373Z,3.27
2019-03-12T09:26:27.104Z,1.70
2019-03-12T09:29:15.757Z,3.60
2019-03-12T09:31:58.217Z,3.40
2019-03-12T09:34:35.314Z,3.62
2019-03-12T09:37:14.217Z,3.22
2019-03-12T09:40:17.835Z,3.00
2019-03-12T09:43:21.636Z,2.22
2019-03-12T09:46:22.261Z,2.72
2019-03-12T09:49:07.475Z,2.67
2019-03-12T09:51:54.997Z,2.65
2019-03-12T09:54:43.001Z,3.02
2019-03-12T09:57:19.262Z,4.80
2019-03-12T10:00:20.133Z,3.12
2019-03-12T10:03:15.533Z,2.45
2019-03-12T10:06:01.625Z,2.67
2019-03-12T10:09:08.475Z,2.70
2019-03-12T10:12:09.099Z,2.83
2019-03-12T10:14:56.494Z,2.77
2019-03-12T10:17:41.494Z,2.95
2019-03-12T10:20:20.944Z,2.20
2019-03-12T10:23:15.394Z,2.70
2019-03-12T10:25:53.334Z,1.90
2019-03-12T10:28:40.984Z,4.40
2019-03-12T10:31:41.689Z,3.45
2019-03-12T10:34:30.934Z,1.92
2019-03-12T10:37:25.894Z,2.42
2019-03-12T10:40:25.427Z,2.65
2019-03-12T10:43:31.388Z,2.10
2019-03-12T10:46:19.075Z,2.65
2019-03-12T10:48:51.622Z,2.37
2019-03-12T10:51:21.293Z,2.58
2019-03-12T10:53:51.119Z,2.37
2019-03-12T10:56:20.866Z,2.27
2019-03-12T10:58:51.154Z,1.85
2019-03-12T11:01:21.110Z,2.50
2019-03-12T11:03:50.731Z,1.72
2019-03-12T11:06:20.704Z,2.20
2019-03-12T11:08:50.516Z,2.27
2019-03-12T11:11:20.492Z,2.15
2019-03-12T11:13:50.275Z,1.70
2019-03-12T11:16:20.225Z,2.55
2019-03-12T11:18:50.073Z,2.17
2019-03-12T11:21:19.838Z,1.70
2019-03-12T11:23:49.282Z,2.55
2019-03-12T11:26:18.758Z,2.12
2019-03-12T11:28:48.755Z,2.65
2019-03-12T11:31:18.636Z,2.65
2019-03-12T11:33:48.454Z,8.33
2019-03-12T11:36:18.221Z,6.33
2019-03-12T11:38:47.977Z,3.20
2019-03-12T11:41:17.850Z,3.00
2019-03-12T11:43:47.709Z,2.35
2019-03-12T11:46:17.764Z,3.22
2019-03-12T11:48:47.916Z,3.70
2019-03-12T11:51:17.941Z,4.65
2019-03-12T11:53:47.969Z,3.37
2019-03-12T11:56:17.571Z,3.17
2019-03-12T11:58:47.760Z,0.90
2019-03-12T12:01:17.786Z,3.27
2019-03-12T12:03:47.732Z,5.83
2019-03-12T12:06:17.730Z,3.47
2019-03-12T12:08:47.691Z,3.12
2019-03-12T12:11:17.510Z,2.30
2019-03-12T12:13:46.961Z,3.30
2019-03-12T12:16:16.856Z,2.50
2019-03-12T12:18:46.956Z,2.22
2019-03-12T12:21:16.980Z,2.87
2019-03-12T12:23:46.630Z,2.20
2019-03-12T12:26:16.390Z,2.47
2019-03-12T12:28:46.110Z,2.05
2019-03-12T12:31:15.806Z,2.42
2019-03-12T12:33:45.876Z,2.60
2019-03-12T12:36:15.659Z,2.42
2019-03-12T12:38:45.693Z,2.22
2019-03-12T12:41:15.366Z,2.55
2019-03-12T12:43:45.104Z,3.27
2019-03-12T12:46:14.668Z,3.52
2019-03-12T12:48:44.176Z,3.37
2019-03-12T12:51:13.676Z,2.40
2019-03-12T12:53:43.719Z,3.62
2019-03-12T12:56:13.298Z,2.02
2019-03-12T12:58:43.172Z,4.17
2019-03-12T13:01:12.995Z,2.45
2019-03-12T13:03:43.132Z,2.40
2019-03-12T13:06:12.745Z,2.92
2019-03-12T13:08:42.396Z,2.30
2019-03-12T13:11:11.796Z,2.55
2019-03-12T13:13:41.555Z,2.33
2019-03-12T13:16:24.029Z,2.50
2019-03-12T13:18:43.020Z,2.55
2019-03-12T13:21:12.571Z,2.10
2019-03-12T13:23:42.285Z,2.42
2019-03-12T13:26:12.156Z,2.75
2019-03-12T13:28:44.829Z,2.45
2019-03-12T13:31:13.275Z,1.50
2019-03-12T13:33:43.476Z,2.27
2019-03-12T13:36:15.417Z,1.75
2019-03-12T13:38:47.088Z,1.40
2019-03-12T13:41:16.413Z,2.77
2019-03-12T13:43:46.498Z,1.60
2019-03-12T13:46:16.454Z,2.10
2019-03-12T13:48:46.356Z,2.50
2019-03-12T13:51:16.008Z,1.90
2019-03-12T13:53:45.345Z,2.62
2019-03-12T13:56:14.981Z,2.05
2019-03-12T13:58:44.676Z,2.47
2019-03-12T14:01:14.833Z,2.55
2019-03-12T14:03:44.491Z,6.92
2019-03-12T14:06:14.197Z,2.75
2019-03-12T14:08:44.011Z,3.90
2019-03-12T14:11:13.533Z,3.22
2019-03-12T14:13:43.271Z,2.47
2019-03-12T14:16:13.293Z,6.40
2019-03-12T14:18:42.995Z,8.28
2019-03-12T14:21:14.794Z,3.75
2019-03-12T14:23:50.919Z,3.92
2019-03-12T14:26:20.620Z,2.50
2019-03-12T14:28:52.388Z,1.90
2019-03-12T14:31:21.568Z,1.80
2019-03-12T14:33:51.280Z,2.17
2019-03-12T14:36:21.394Z,1.42
2019-03-12T14:38:51.035Z,1.80
2019-03-12T14:41:20.610Z,1.55
2019-03-12T14:43:50.316Z,1.65
2019-03-12T14:46:20.079Z,1.82
2019-03-12T14:48:54.836Z,2.10
2019-03-12T14:51:42.835Z,1.40
2019-03-12T14:54:12.880Z,1.98
2019-03-12T14:56:42.584Z,1.55
2019-03-12T14:59:12.218Z,1.87
2019-03-12T15:01:42.155Z,2.22
2019-03-12T15:04:15.082Z,1.65
2019-03-12T15:06:44.321Z,2.10
2019-03-12T15:09:15.285Z,1.98
2019-03-12T15:11:44.815Z,1.75
2019-03-12T15:14:14.669Z,1.50
2019-03-12T15:16:44.177Z,1.70
2019-03-12T15:19:13.879Z,1.57
2019-03-12T15:21:43.772Z,2.58
2019-03-12T15:24:13.428Z,2.02
2019-03-12T15:26:43.119Z,1.70
2019-03-12T15:29:13.034Z,2.47
2019-03-12T15:31:43.958Z,2.30
2019-03-12T15:34:13.652Z,2.15
2019-03-12T15:36:45.353Z,1.92
2019-03-12T15:39:14.555Z,1.70
2019-03-12T15:41:44.252Z,2.30
2019-03-12T15:44:13.653Z,1.67
2019-03-12T15:46:43.294Z,1.60
2019-03-12T15:49:12.994Z,2.75
2019-03-12T15:51:42.460Z,1.80
2019-03-12T15:54:11.948Z,1.77
2019-03-12T15:56:41.756Z,1.85
2019-03-12T15:59:11.495Z,1.75
2019-03-12T16:01:41.015Z,1.55
2019-03-12T16:04:10.720Z,1.98
2019-03-12T16:06:40.292Z,1.82
2019-03-12T16:09:10.243Z,1.37
2019-03-12T16:11:39.892Z,2.60
2019-03-12T16:14:09.758Z,1.92
2019-03-12T16:16:39.335Z,1.45
2019-03-12T16:19:08.972Z,1.40
2019-03-12T16:21:40.437Z,1.72
2019-03-12T16:24:10.084Z,2.12
2019-03-12T16:26:39.797Z,1.80
2019-03-12T16:29:09.335Z,1.67
2019-03-12T16:31:39.156Z,3.80
2019-03-12T16:34:08.726Z,1.65
2019-03-12T16:36:38.524Z,1.92
2019-03-12T16:39:08.315Z,1.25
2019-03-12T16:41:38.043Z,1.87
2019-03-12T16:44:07.753Z,1.80
2019-03-12T16:46:37.602Z,1.60
2019-03-12T16:49:09.044Z,1.62
2019-03-12T16:51:38.821Z,2.08
2019-03-12T16:54:08.439Z,1.50
2019-03-12T16:56:45.124Z,1.50
2019-03-12T16:59:09.297Z,1.00
2019-03-12T17:01:38.917Z,2.35
2019-03-12T17:04:08.916Z,1.52
2019-03-12T17:06:38.440Z,1.85
2019-03-12T17:09:07.905Z,1.80
2019-03-12T17:11:37.596Z,1.95
2019-03-12T17:14:07.640Z,2.10
2019-03-12T17:16:37.357Z,1.40
2019-03-12T17:19:06.817Z,1.65
2019-03-12T17:21:36.358Z,1.70
2019-03-12T17:24:06.049Z,1.45
2019-03-12T17:26:36.049Z,1.30
2019-03-12T17:29:05.888Z,2.10
2019-03-12T17:31:35.444Z,2.00
2019-03-12T17:34:05.253Z,1.70
2019-03-12T17:36:34.776Z,1.47
2019-03-12T17:39:05.745Z,1.70
2019-03-12T17:41:35.802Z,1.40
2019-03-12T17:44:05.803Z,1.45
2019-03-12T17:46:40.260Z,1.22
2019-03-12T17:49:12.466Z,1.32
2019-03-12T17:51:41.326Z,1.47
2019-03-12T17:54:10.772Z,1.37
2019-03-12T17:56:40.457Z,1.75
2019-03-12T17:59:10.236Z,3.40
2019-03-12T18:01:39.971Z,3.33
2019-03-12T18:04:09.518Z,2.77
2019-03-12T18:06:39.047Z,3.10
2019-03-12T18:09:09.021Z,3.20
2019-03-12T18:11:38.614Z,4.45
2019-03-12T18:14:08.558Z,6.97
2019-03-12T18:16:41.382Z,2.77
2019-03-12T18:19:09.474Z,3.20
2019-03-12T18:21:39.074Z,5.47
2019-03-12T18:24:08.783Z,4.95
2019-03-12T18:26:38.614Z,3.90
2019-03-12T18:29:08.255Z,2.72
2019-03-12T18:31:38.561Z,4.00
2019-03-12T18:34:08.318Z,3.60
2019-03-12T18:36:37.777Z,2.27
2019-03-12T18:39:08.681Z,4.22
2019-03-12T18:41:38.916Z,2.37
2019-03-12T18:44:08.372Z,2.87
2019-03-12T18:46:38.133Z,3.17
2019-03-12T18:49:07.855Z,4.90
2019-03-12T18:51:38.542Z,2.30
2019-03-12T18:54:08.321Z,1.60
2019-03-12T18:56:37.897Z,2.15
2019-03-12T18:59:07.539Z,1.92
2019-03-12T19:01:37.294Z,1.92
2019-03-12T19:04:07.055Z,2.92
2019-03-12T19:06:36.999Z,1.98
2019-03-12T19:09:07.958Z,2.17
2019-03-12T19:11:37.952Z,2.27
2019-03-12T19:14:09.158Z,3.50
2019-03-12T19:16:39.001Z,2.27
2019-03-12T19:19:08.922Z,1.70
2019-03-12T19:21:38.736Z,2.15
2019-03-12T19:24:08.640Z,2.95
2019-03-12T19:26:38.632Z,3.60
2019-03-12T19:29:08.797Z,1.55
2019-03-12T19:32:06.479Z,1.82
2019-03-12T19:34:37.644Z,2.17
2019-03-12T19:37:08.387Z,3.15
2019-03-12T19:39:58.190Z,3.52
2019-03-12T19:42:28.514Z,2.95
2019-03-12T19:44:58.513Z,7.78
2019-03-12T19:47:32.333Z,2.58
2019-03-12T19:50:06.239Z,4.65
2019-03-12T19:55:36.194Z,2.90
2019-03-12T19:58:29.035Z,2.10
2019-03-12T20:01:00.150Z,2.27
2019-03-12T20:03:55.458Z,1.70
2019-03-12T20:06:28.117Z,2.35
2019-03-12T20:09:01.724Z,1.55
2019-03-12T20:12:30.943Z,2.10
2019-03-12T20:15:50.208Z,2.08
2019-03-12T20:22:30.454Z,2.40
2019-03-12T20:25:44.335Z,1.90
2019-03-12T20:28:57.370Z,2.30
2019-03-12T20:32:03.485Z,2.00
2019-03-12T20:39:21.937Z,2.85
2019-03-12T20:42:48.343Z,2.40
2019-03-12T20:46:05.321Z,2.42
2019-03-12T20:49:12.137Z,2.10
2019-03-12T20:52:22.153Z,28.85
2019-03-12T20:55:38.317Z,8.45
2019-03-12T20:59:01.258Z,8.43
2019-03-12T21:02:00.753Z,10.60
2019-03-12T21:05:19.719Z,12.53
2019-03-12T21:08:53.623Z,2.20
2019-03-12T21:12:14.095Z,7.80
2019-03-12T21:15:37.491Z,4.05
2019-03-12T21:18:42.524Z,1.90
2019-03-12T21:22:03.912Z,1.70
2019-03-12T21:25:19.973Z,1.20
2019-03-12T21:28:12.050Z,1.10
2019-03-12T21:30:42.711Z,0.98
2019-03-12T21:33:15.585Z,0.65
2019-03-12T21:35:44.881Z,1.15
2019-03-12T21:38:43.984Z,1.20
2019-03-12T21:41:14.570Z,0.90
2019-03-12T21:44:08.057Z,1.30
2019-03-12T21:46:53.039Z,0.95
2019-03-12T21:49:28.379Z,0.80
2019-03-12T21:51:58.598Z,1.10
2019-03-12T21:55:05.873Z,1.10
2019-03-12T21:57:52.989Z,0.95
2019-03-12T22:00:43.304Z,1.15
2019-03-12T22:03:19.963Z,1.40
2019-03-12T22:05:50.357Z,1.75
2019-03-12T22:08:38.895Z,2.20
2019-03-12T22:14:27.724Z,2.58
2019-03-12T22:17:00.962Z,3.05
2019-03-12T22:19:54.793Z,3.52
2019-03-12T22:22:49.588Z,3.58
2019-03-12T22:25:19.608Z,3.70
2019-03-12T22:27:49.485Z,4.05
2019-03-12T22:30:21.068Z,2.80
2019-03-12T22:32:51.356Z,3.72
2019-03-12T22:35:21.434Z,3.42
2019-03-12T22:37:51.631Z,4.35
2019-03-12T22:40:21.386Z,3.80
2019-03-12T22:42:51.002Z,4.50
2019-03-12T22:45:26.084Z,4.80
2019-03-12T22:47:56.386Z,4.80
2019-03-12T22:50:26.322Z,4.78
2019-03-12T22:52:56.508Z,4.67
2019-03-12T22:55:27.066Z,4.55
2019-03-12T22:57:57.163Z,4.50
2019-03-12T23:00:29.176Z,3.40
2019-03-12T23:02:59.715Z,4.00
2019-03-12T23:05:29.928Z,4.00
2019-03-12T23:07:59.806Z,4.35
2019-03-12T23:10:33.882Z,3.72
2019-03-12T23:13:04.338Z,3.62
2019-03-12T23:15:35.076Z,3.80
2019-03-12T23:18:05.231Z,4.03
2019-03-12T23:20:35.387Z,4.30
2019-03-12T23:23:05.798Z,4.00
2019-03-12T23:25:36.580Z,3.22
2019-03-12T23:28:06.896Z,3.17
2019-03-12T23:30:36.583Z,2.80
2019-03-12T23:33:06.709Z,3.50
2019-03-12T23:35:36.665Z,2.62
2019-03-12T23:38:06.762Z,2.00
2019-03-12T23:40:37.739Z,3.42
2019-03-12T23:43:07.780Z,2.70
2019-03-12T23:45:37.890Z,3.35
2019-03-12T23:48:08.546Z,3.25
2019-03-12T23:50:38.660Z,2.50
2019-03-12T23:53:09.162Z,3.20
2019-03-12T23:55:39.716Z,3.50
2019-03-12T23:58:10.073Z,3.02
